createdAt,value
2023-02-19T00:00:30.748Z,6.44
2023-02-19T00:03:02.628Z,6.44
2023-02-19T00:05:33.873Z,6.80
2023-02-19T00:08:03.742Z,6.52
2023-02-19T00:10:38.271Z,6.88
2023-02-19T00:13:09.428Z,6.60
2023-02-19T00:15:39.743Z,6.90
2023-02-19T00:18:09.816Z,6.68
2023-02-19T00:20:39.752Z,6.39
2023-02-19T00:23:10.004Z,6.27
2023-02-19T00:25:41.536Z,6.51
2023-02-19T00:28:11.601Z,6.10
2023-02-19T00:30:41.556Z,6.55
2023-02-19T00:33:11.718Z,6.59
2023-02-19T00:35:41.422Z,6.31
2023-02-19T00:38:12.054Z,6.29
2023-02-19T00:40:44.409Z,6.67
2023-02-19T00:43:14.946Z,6.50
2023-02-19T00:45:45.725Z,6.22
2023-02-19T00:48:16.151Z,6.57
2023-02-19T00:50:46.501Z,5.84
2023-02-19T00:53:16.408Z,6.12
2023-02-19T00:55:48.835Z,5.90
2023-02-19T00:58:18.710Z,5.84
2023-02-19T01:00:49.836Z,5.93
2023-02-19T01:03:19.829Z,6.19
2023-02-19T01:05:50.700Z,6.47
2023-02-19T01:08:20.198Z,6.36
2023-02-19T01:10:52.343Z,6.24
2023-02-19T01:13:23.841Z,6.15
2023-02-19T01:15:56.229Z,6.08
2023-02-19T01:18:26.515Z,6.00
2023-02-19T01:20:56.909Z,5.83
2023-02-19T01:23:27.464Z,5.92
2023-02-19T01:26:00.201Z,6.01
2023-02-19T01:28:31.119Z,5.83
2023-02-19T01:31:04.897Z,6.48
2023-02-19T01:33:36.978Z,6.67
2023-02-19T01:36:09.423Z,5.87
2023-02-19T01:38:41.123Z,6.30
2023-02-19T01:41:16.520Z,6.43
2023-02-19T01:44:03.348Z,6.10
2023-02-19T01:46:35.639Z,6.42
2023-02-19T01:49:10.116Z,6.37
2023-02-19T01:51:43.896Z,6.28
2023-02-19T01:54:17.327Z,6.64
2023-02-19T01:56:53.487Z,6.21
2023-02-19T01:59:24.642Z,6.60
2023-02-19T02:01:55.790Z,6.27
2023-02-19T02:04:26.383Z,6.03
2023-02-19T02:06:58.956Z,6.54
2023-02-19T02:09:49.604Z,5.91
2023-02-19T02:12:22.154Z,5.97
2023-02-19T02:14:52.892Z,6.37
2023-02-19T02:17:28.485Z,6.50
2023-02-19T02:20:39.286Z,6.52
2023-02-19T02:23:19.397Z,6.14
2023-02-19T02:26:11.849Z,6.31
2023-02-19T02:29:19.804Z,6.41
2023-02-19T02:31:59.081Z,6.30
2023-02-19T02:34:35.800Z,5.75
2023-02-19T02:37:11.487Z,6.07
2023-02-19T02:39:45.891Z,5.92
2023-02-19T02:42:30.593Z,6.01
2023-02-19T02:45:34.439Z,6.41
2023-02-19T02:48:35.897Z,5.95
2023-02-19T02:51:15.659Z,6.14
2023-02-19T02:54:08.593Z,6.11
2023-02-19T02:56:40.497Z,5.82
2023-02-19T02:59:13.054Z,5.72
2023-02-19T03:02:12.116Z,5.27
2023-02-19T03:05:06.845Z,5.47
2023-02-19T03:07:40.637Z,5.41
2023-02-19T03:10:14.841Z,5.48
2023-02-19T03:13:04.396Z,5.65
2023-02-19T03:15:56.259Z,5.80
2023-02-19T03:18:45.297Z,5.71
2023-02-19T03:21:20.886Z,5.66
2023-02-19T03:24:09.383Z,5.93
2023-02-19T03:26:43.015Z,5.97
2023-02-19T03:29:26.409Z,6.19
2023-02-19T03:31:59.734Z,5.75
2023-02-19T03:34:34.528Z,5.57
2023-02-19T03:37:12.690Z,6.00
2023-02-19T03:39:46.173Z,5.54
2023-02-19T03:42:23.462Z,5.71
2023-02-19T03:45:08.129Z,6.06
2023-02-19T03:47:44.263Z,5.56
2023-02-19T03:50:18.988Z,6.12
2023-02-19T03:52:59.020Z,5.83
2023-02-19T03:55:34.881Z,5.76
2023-02-19T03:58:10.705Z,5.62
2023-02-19T04:00:44.944Z,6.07
2023-02-19T04:03:20.942Z,5.81
2023-02-19T04:05:55.733Z,6.17
2023-02-19T04:08:29.437Z,6.16
2023-02-19T04:11:01.929Z,5.83
2023-02-19T04:13:37.583Z,5.57
2023-02-19T04:16:23.665Z,6.12
2023-02-19T04:18:57.969Z,6.03
2023-02-19T04:21:33.333Z,5.65
2023-02-19T04:24:08.475Z,5.72
2023-02-19T04:26:43.889Z,5.81
2023-02-19T04:29:16.122Z,5.32
2023-02-19T04:31:47.185Z,5.64
2023-02-19T04:34:22.826Z,5.92
2023-02-19T04:36:54.942Z,5.64
2023-02-19T04:39:27.858Z,5.76
2023-02-19T04:41:58.306Z,5.56
2023-02-19T04:44:29.326Z,5.35
2023-02-19T04:47:00.256Z,5.61
2023-02-19T04:49:31.422Z,5.38
2023-02-19T04:52:01.591Z,5.29
2023-02-19T04:54:33.948Z,5.64
2023-02-19T04:57:03.889Z,5.22
2023-02-19T04:59:34.119Z,5.29
2023-02-19T05:02:04.258Z,5.13
2023-02-19T05:04:34.753Z,5.78
2023-02-19T05:07:04.964Z,5.15
2023-02-19T05:09:37.114Z,5.34
2023-02-19T05:12:07.396Z,5.29
2023-02-19T05:14:38.450Z,5.43
2023-02-19T05:17:08.571Z,5.66
2023-02-19T05:19:38.846Z,5.90
2023-02-19T05:22:09.232Z,5.47
2023-02-19T05:24:43.246Z,5.74
2023-02-19T05:27:14.120Z,5.21
2023-02-19T05:29:44.261Z,5.12
2023-02-19T05:32:14.732Z,5.69
2023-02-19T05:34:44.999Z,5.79
2023-02-19T05:37:15.052Z,5.57
2023-02-19T05:39:46.544Z,5.41
2023-02-19T05:42:18.329Z,5.77
2023-02-19T05:44:48.735Z,5.64
2023-02-19T05:47:18.527Z,5.75
2023-02-19T05:49:49.288Z,5.58
2023-02-19T05:52:19.728Z,6.05
2023-02-19T05:54:50.838Z,5.77
2023-02-19T05:57:21.914Z,5.84
2023-02-19T05:59:52.160Z,5.83
2023-02-19T06:02:22.668Z,6.13
2023-02-19T06:04:52.881Z,5.96
2023-02-19T06:07:23.268Z,5.93
2023-02-19T06:09:55.285Z,6.25
2023-02-19T06:12:25.490Z,6.64
2023-02-19T06:14:55.962Z,6.43
2023-02-19T06:17:26.575Z,5.97
2023-02-19T06:19:56.866Z,6.50
2023-02-19T06:22:27.941Z,6.07
2023-02-19T06:25:00.271Z,6.24
2023-02-19T06:27:30.751Z,6.51
2023-02-19T06:30:01.261Z,6.65
2023-02-19T06:32:32.255Z,6.57
2023-02-19T06:35:03.213Z,6.54
2023-02-19T06:37:34.240Z,6.47
2023-02-19T06:40:06.073Z,6.45
2023-02-19T06:42:36.490Z,6.50
2023-02-19T06:45:07.556Z,6.53
2023-02-19T06:47:38.146Z,6.74
2023-02-19T06:50:09.192Z,6.88
2023-02-19T06:52:39.924Z,6.75
2023-02-19T06:55:12.979Z,6.59
2023-02-19T06:57:44.113Z,6.63
2023-02-19T07:00:15.967Z,7.02
2023-02-19T07:02:48.865Z,6.98
2023-02-19T07:05:19.280Z,6.70
2023-02-19T07:07:51.100Z,6.96
2023-02-19T07:10:22.817Z,7.16
2023-02-19T07:12:52.807Z,7.13
2023-02-19T07:15:23.568Z,7.13
2023-02-19T07:17:53.786Z,6.88
2023-02-19T07:20:24.829Z,6.73
2023-02-19T07:22:55.740Z,7.21
2023-02-19T07:25:27.629Z,7.17
2023-02-19T07:27:58.245Z,7.17
2023-02-19T07:30:28.567Z,6.83
2023-02-19T07:32:58.640Z,7.00
2023-02-19T07:35:28.817Z,6.83
2023-02-19T07:37:59.274Z,6.73
2023-02-19T07:40:31.973Z,7.07
2023-02-19T07:43:03.074Z,6.86
2023-02-19T07:45:33.539Z,7.10
2023-02-19T07:48:04.215Z,7.19
2023-02-19T07:50:34.191Z,6.74
2023-02-19T07:53:04.749Z,6.92
2023-02-19T07:55:37.752Z,6.95
2023-02-19T07:58:08.210Z,7.05
2023-02-19T08:00:38.931Z,6.82
2023-02-19T08:03:08.398Z,6.82
2023-02-19T08:05:41.097Z,6.28
2023-02-19T08:08:12.614Z,6.60
2023-02-19T08:11:01.983Z,6.63
2023-02-19T08:13:34.429Z,6.69
2023-02-19T08:16:24.151Z,6.88
2023-02-19T08:19:00.473Z,6.81
2023-02-19T08:21:31.302Z,6.88
2023-02-19T08:24:02.136Z,7.09
2023-02-19T08:26:34.698Z,7.28
2023-02-19T08:29:04.764Z,7.00
2023-02-19T08:31:35.918Z,6.98
2023-02-19T08:34:06.348Z,6.95
2023-02-19T08:36:36.657Z,7.32
2023-02-19T08:39:06.940Z,7.45
2023-02-19T08:41:38.699Z,7.44
2023-02-19T08:44:09.424Z,6.84
2023-02-19T08:46:39.422Z,7.11
2023-02-19T08:49:28.164Z,7.18
2023-02-19T08:51:57.977Z,7.39
2023-02-19T08:54:27.723Z,7.23
2023-02-19T08:57:02.268Z,7.41
2023-02-19T08:59:32.750Z,7.41
2023-02-19T09:02:02.817Z,7.32
2023-02-19T09:04:33.206Z,7.36
2023-02-19T09:07:03.179Z,7.42
2023-02-19T09:09:33.878Z,7.48
2023-02-19T09:12:07.163Z,7.59
2023-02-19T09:14:37.929Z,7.27
2023-02-19T09:17:08.752Z,7.53
2023-02-19T09:19:39.285Z,7.34
2023-02-19T09:22:09.596Z,7.72
2023-02-19T09:24:40.114Z,7.71
2023-02-19T09:27:12.374Z,7.94
2023-02-19T09:29:42.503Z,7.88
2023-02-19T09:32:12.929Z,7.86
2023-02-19T09:34:43.589Z,8.05
2023-02-19T09:37:14.146Z,8.05
2023-02-19T09:39:44.511Z,8.22
2023-02-19T09:42:21.244Z,8.38
2023-02-19T09:44:53.115Z,8.36
2023-02-19T09:47:25.635Z,8.29
2023-02-19T09:49:57.710Z,8.64
2023-02-19T09:52:33.089Z,8.37
2023-02-19T09:55:07.657Z,8.61
2023-02-19T09:57:39.265Z,8.78
2023-02-19T10:00:21.662Z,8.85
2023-02-19T10:02:55.197Z,9.06
2023-02-19T10:05:27.035Z,10.32
2023-02-19T10:07:58.282Z,10.52
2023-02-19T10:10:32.354Z,10.31
2023-02-19T10:13:16.767Z,11.80
2023-02-19T10:15:49.435Z,12.42
2023-02-19T10:18:21.329Z,12.26
2023-02-19T10:20:53.089Z,11.30
2023-02-19T10:23:23.634Z,11.19
2023-02-19T10:25:57.336Z,11.21
2023-02-19T10:28:31.734Z,11.23
2023-02-19T10:31:03.898Z,11.61
2023-02-19T10:33:34.445Z,11.33
2023-02-19T10:36:06.566Z,11.25
2023-02-19T10:38:38.553Z,11.66
2023-02-19T10:41:10.024Z,12.04
2023-02-19T10:43:45.219Z,12.24
2023-02-19T10:46:19.335Z,12.28
2023-02-19T10:48:53.526Z,12.59
2023-02-19T10:51:25.583Z,13.41
2023-02-19T10:54:07.237Z,13.73
2023-02-19T10:56:38.949Z,14.35
2023-02-19T10:59:27.740Z,13.70
2023-02-19T11:01:58.990Z,13.60
2023-02-19T11:04:34.299Z,14.09
2023-02-19T11:07:10.832Z,13.94
2023-02-19T11:09:43.024Z,14.83
2023-02-19T11:12:13.160Z,14.71
2023-02-19T11:14:46.112Z,15.39
2023-02-19T11:17:26.380Z,15.24
2023-02-19T11:19:57.724Z,15.20
2023-02-19T11:22:33.811Z,16.07
2023-02-19T11:25:07.997Z,16.73
2023-02-19T11:27:38.365Z,16.07
2023-02-19T11:30:41.408Z,16.04
2023-02-19T11:33:35.616Z,15.69
2023-02-19T11:36:33.862Z,16.45
2023-02-19T11:39:24.677Z,16.47
2023-02-19T11:42:07.648Z,16.84
2023-02-19T11:44:49.830Z,17.42
2023-02-19T11:47:54.138Z,17.33
2023-02-19T11:50:30.059Z,17.89
2023-02-19T11:53:12.548Z,18.46
2023-02-19T11:55:55.057Z,18.62
2023-02-19T11:58:53.368Z,18.16
2023-02-19T12:01:29.973Z,19.02
2023-02-19T12:04:32.379Z,19.18
2023-02-19T12:07:09.521Z,19.90
2023-02-19T12:09:52.333Z,20.31
2023-02-19T12:12:33.418Z,20.64
2023-02-19T12:15:15.874Z,20.81
2023-02-19T12:18:17.656Z,20.68
2023-02-19T12:20:55.413Z,20.66
2023-02-19T12:23:55.072Z,20.90
2023-02-19T12:26:30.193Z,21.12
2023-02-19T12:29:12.895Z,21.60
2023-02-19T12:32:15.935Z,20.81
2023-02-19T12:35:16.540Z,21.04
2023-02-19T12:37:52.231Z,21.14
2023-02-19T12:40:37.811Z,21.23
2023-02-19T12:43:25.092Z,21.24
2023-02-19T12:45:58.906Z,20.88
2023-02-19T12:48:31.917Z,20.72
2023-02-19T12:51:07.564Z,20.35
2023-02-19T12:53:42.498Z,19.47
2023-02-19T12:56:17.459Z,19.08
2023-02-19T12:58:52.965Z,19.41
2023-02-19T13:01:27.638Z,19.38
2023-02-19T13:04:18.217Z,19.61
2023-02-19T13:06:53.625Z,19.94
2023-02-19T13:09:28.749Z,20.17
2023-02-19T13:12:03.768Z,20.05
2023-02-19T13:14:38.133Z,20.45
2023-02-19T13:17:13.444Z,20.31
2023-02-19T13:19:44.769Z,19.87
2023-02-19T13:22:42.002Z,19.95
2023-02-19T13:25:14.617Z,20.32
2023-02-19T13:28:07.474Z,20.21
2023-02-19T13:31:03.705Z,20.24
2023-02-19T13:33:46.605Z,20.02
2023-02-19T13:36:22.876Z,20.12
2023-02-19T13:38:54.072Z,20.01
2023-02-19T13:41:33.228Z,19.96
2023-02-19T13:44:06.762Z,19.88
2023-02-19T13:46:42.630Z,19.67
2023-02-19T13:49:45.228Z,19.33
2023-02-19T13:52:48.201Z,18.88
2023-02-19T13:55:57.065Z,19.07
2023-02-19T13:59:06.290Z,18.79
2023-02-19T14:02:27.162Z,19.02
2023-02-19T14:05:00.445Z,18.30
2023-02-19T14:07:57.105Z,18.45
2023-02-19T14:11:04.125Z,18.16
2023-02-19T14:14:27.235Z,17.94
2023-02-19T14:17:31.335Z,17.72
2023-02-19T14:20:04.916Z,17.69
2023-02-19T14:23:11.663Z,17.57
2023-02-19T14:25:56.904Z,17.66
2023-02-19T14:28:45.708Z,17.22
2023-02-19T14:31:26.539Z,17.18
2023-02-19T14:34:03.785Z,16.88
2023-02-19T14:36:44.767Z,16.70
2023-02-19T14:39:19.103Z,16.29
2023-02-19T14:41:54.229Z,16.48
2023-02-19T14:44:28.392Z,16.43
2023-02-19T14:47:07.209Z,16.11
2023-02-19T14:49:46.193Z,16.15
2023-02-19T14:52:25.315Z,16.01
2023-02-19T14:54:59.095Z,15.98
2023-02-19T14:57:34.386Z,15.97
2023-02-19T15:00:24.406Z,16.00
2023-02-19T15:02:58.013Z,15.85
2023-02-19T15:05:35.328Z,15.57
2023-02-19T15:08:10.750Z,15.65
2023-02-19T15:10:44.403Z,15.39
2023-02-19T15:13:23.986Z,15.50
2023-02-19T15:15:55.872Z,15.60
2023-02-19T15:18:30.308Z,15.56
2023-02-19T15:21:08.502Z,15.34
2023-02-19T15:23:39.311Z,15.27
2023-02-19T15:26:22.491Z,15.12
2023-02-19T15:29:01.740Z,15.25
2023-02-19T15:31:32.859Z,15.08
2023-02-19T15:34:04.129Z,15.14
2023-02-19T15:36:37.421Z,14.95
2023-02-19T15:39:07.846Z,15.24
2023-02-19T15:41:38.336Z,15.11
2023-02-19T15:44:31.479Z,14.98
2023-02-19T15:47:11.016Z,14.92
2023-02-19T15:49:51.982Z,14.49
2023-02-19T15:52:36.294Z,14.80
2023-02-19T15:55:27.962Z,14.58
2023-02-19T15:58:08.835Z,14.71
2023-02-19T16:00:44.141Z,14.46
2023-02-19T16:03:21.516Z,14.60
2023-02-19T16:06:03.089Z,14.67
2023-02-19T16:08:37.920Z,14.29
2023-02-19T16:11:28.222Z,14.09
2023-02-19T16:14:24.211Z,14.08
2023-02-19T16:16:58.334Z,14.20
2023-02-19T16:19:31.140Z,14.29
2023-02-19T16:22:03.027Z,14.32
2023-02-19T16:24:42.456Z,14.04
2023-02-19T16:27:13.944Z,13.98
2023-02-19T16:29:43.878Z,13.91
2023-02-19T16:32:19.053Z,14.08
2023-02-19T16:34:52.396Z,14.07
2023-02-19T16:37:38.203Z,13.77
2023-02-19T16:41:04.879Z,13.74
2023-02-19T16:43:44.792Z,13.91
2023-02-19T16:46:16.112Z,13.86
2023-02-19T16:49:22.813Z,13.79
2023-02-19T16:51:55.629Z,13.85
2023-02-19T16:54:27.401Z,13.58
2023-02-19T16:56:57.626Z,13.69
2023-02-19T16:59:30.966Z,13.43
2023-02-19T17:02:01.071Z,13.61
2023-02-19T17:04:32.436Z,13.56
2023-02-19T17:07:04.045Z,13.42
2023-02-19T17:09:34.503Z,13.51
2023-02-19T17:12:08.086Z,13.40
2023-02-19T17:14:40.181Z,13.37
2023-02-19T17:17:10.380Z,13.31
2023-02-19T17:19:43.120Z,13.22
2023-02-19T17:22:17.593Z,13.04
2023-02-19T17:24:48.987Z,12.88
2023-02-19T17:27:18.760Z,12.98
2023-02-19T17:29:50.106Z,12.88
2023-02-19T17:32:20.579Z,12.83
2023-02-19T17:34:52.314Z,12.78
2023-02-19T17:37:22.357Z,12.87
2023-02-19T17:39:53.190Z,13.57
2023-02-19T17:42:24.100Z,13.79
2023-02-19T17:44:56.557Z,13.85
2023-02-19T17:47:27.049Z,15.11
2023-02-19T17:49:57.980Z,14.26
2023-02-19T17:52:29.770Z,13.63
2023-02-19T17:55:01.470Z,14.80
2023-02-19T17:57:34.112Z,14.98
2023-02-19T18:00:09.108Z,15.44
2023-02-19T18:02:39.776Z,14.16
2023-02-19T18:05:12.771Z,14.90
2023-02-19T18:07:43.649Z,15.40
2023-02-19T18:10:15.652Z,15.06
2023-02-19T18:12:46.899Z,15.67
2023-02-19T18:15:24.170Z,15.10
2023-02-19T18:17:55.617Z,14.55
2023-02-19T18:20:28.551Z,14.51
2023-02-19T18:23:01.334Z,15.48
2023-02-19T18:25:32.622Z,14.69
2023-02-19T18:28:02.692Z,15.15
2023-02-19T18:30:36.097Z,14.34
2023-02-19T18:33:06.864Z,14.38
2023-02-19T18:35:36.856Z,14.05
2023-02-19T18:38:08.330Z,13.85
2023-02-19T18:40:38.767Z,13.58
2023-02-19T18:43:25.244Z,13.49
2023-02-19T18:46:02.037Z,13.32
2023-02-19T18:48:33.788Z,13.28
2023-02-19T18:51:04.906Z,12.98
2023-02-19T18:53:36.547Z,13.19
2023-02-19T18:56:09.597Z,13.17
2023-02-19T18:58:39.885Z,13.06
2023-02-19T19:01:14.822Z,12.94
2023-02-19T19:03:45.418Z,12.92
2023-02-19T19:06:15.735Z,12.87
2023-02-19T19:08:46.129Z,12.90
2023-02-19T19:11:20.246Z,12.89
2023-02-19T19:13:51.967Z,13.15
2023-02-19T19:16:28.072Z,12.97
2023-02-19T19:18:58.839Z,13.03
2023-02-19T19:21:31.218Z,12.91
2023-02-19T19:24:02.565Z,12.97
2023-02-19T19:26:33.256Z,13.01
2023-02-19T19:29:05.059Z,12.82
2023-02-19T19:31:38.730Z,12.99
2023-02-19T19:34:10.255Z,12.93
2023-02-19T19:36:39.870Z,12.89
2023-02-19T19:39:11.599Z,12.67
2023-02-19T19:41:45.038Z,12.84
2023-02-19T19:44:15.693Z,12.89
2023-02-19T19:46:47.715Z,12.84
2023-02-19T19:49:22.656Z,13.22
2023-02-19T19:51:58.652Z,12.79
2023-02-19T19:54:32.398Z,13.23
2023-02-19T19:57:02.778Z,13.02
2023-02-19T19:59:33.296Z,12.87
2023-02-19T20:02:06.206Z,12.89
2023-02-19T20:04:36.267Z,12.56
2023-02-19T20:07:07.792Z,12.86
2023-02-19T20:09:37.889Z,12.87
2023-02-19T20:12:11.210Z,12.83
2023-02-19T20:14:41.637Z,12.83
2023-02-19T20:17:15.288Z,12.66
2023-02-19T20:19:48.051Z,12.93
2023-02-19T20:22:19.226Z,12.52
2023-02-19T20:24:54.272Z,13.06
2023-02-19T20:27:28.064Z,12.68
2023-02-19T20:29:58.593Z,12.31
2023-02-19T20:32:30.658Z,12.40
2023-02-19T20:35:00.728Z,12.46
2023-02-19T20:37:32.116Z,12.32
2023-02-19T20:40:01.729Z,11.86
2023-02-19T20:42:32.105Z,12.38
2023-02-19T20:45:02.231Z,12.10
2023-02-19T20:47:34.728Z,11.72
2023-02-19T20:50:04.660Z,11.57
2023-02-19T20:52:34.817Z,12.28
2023-02-19T20:55:05.190Z,11.54
2023-02-19T20:57:35.455Z,11.90
2023-02-19T21:00:08.875Z,11.29
2023-02-19T21:02:43.508Z,11.64
2023-02-19T21:05:14.830Z,11.55
2023-02-19T21:07:45.278Z,11.37
2023-02-19T21:10:16.522Z,11.83
2023-02-19T21:12:48.358Z,11.73
2023-02-19T21:15:20.660Z,11.92
2023-02-19T21:17:58.362Z,11.95
2023-02-19T21:20:29.111Z,12.07
2023-02-19T21:23:01.118Z,12.21
2023-02-19T21:25:31.894Z,12.49
2023-02-19T21:28:02.587Z,12.13
2023-02-19T21:30:40.622Z,11.96
2023-02-19T21:33:13.535Z,11.96
2023-02-19T21:35:44.033Z,12.06
2023-02-19T21:38:14.596Z,11.66
2023-02-19T21:40:45.055Z,12.46
2023-02-19T21:43:16.732Z,12.65
2023-02-19T21:45:47.332Z,11.95
2023-02-19T21:48:19.339Z,12.46
2023-02-19T21:50:49.843Z,11.75
2023-02-19T21:53:19.800Z,11.69
2023-02-19T21:55:58.421Z,12.31
2023-02-19T21:58:28.838Z,12.28
2023-02-19T22:01:01.120Z,12.07
2023-02-19T22:03:32.545Z,11.73
2023-02-19T22:06:05.026Z,11.59
2023-02-19T22:08:36.483Z,11.98
2023-02-19T22:11:06.892Z,11.87
2023-02-19T22:13:37.501Z,12.55
2023-02-19T22:16:09.714Z,12.18
2023-02-19T22:18:48.911Z,11.71
2023-02-19T22:21:19.389Z,12.17
2023-02-19T22:23:51.123Z,11.57
2023-02-19T22:26:24.216Z,11.88
2023-02-19T22:28:54.945Z,12.02
2023-02-19T22:31:26.171Z,12.15
2023-02-19T22:33:59.334Z,12.02
2023-02-19T22:36:31.214Z,11.81
2023-02-19T22:39:01.746Z,11.43
2023-02-19T22:41:32.384Z,11.51
2023-02-19T22:44:04.119Z,11.69
2023-02-19T22:46:34.774Z,11.50
2023-02-19T22:49:07.888Z,11.21
2023-02-19T22:51:37.980Z,11.02
2023-02-19T22:54:09.055Z,11.35
2023-02-19T22:56:39.531Z,11.02
2023-02-19T22:59:09.989Z,10.98
2023-02-19T23:01:41.086Z,11.18
2023-02-19T23:04:14.036Z,11.64
2023-02-19T23:06:45.838Z,10.70
2023-02-19T23:09:21.252Z,10.95
2023-02-19T23:11:52.189Z,10.99
2023-02-19T23:14:24.785Z,10.80
2023-02-19T23:16:55.220Z,11.08
2023-02-19T23:19:28.132Z,10.53
2023-02-19T23:21:58.236Z,10.94
2023-02-19T23:24:28.913Z,10.95
2023-02-19T23:26:59.878Z,10.62
2023-02-19T23:29:32.219Z,10.73
2023-02-19T23:32:01.856Z,11.06
2023-02-19T23:34:34.052Z,11.13
2023-02-19T23:37:05.076Z,10.82
2023-02-19T23:39:36.183Z,10.50
2023-02-19T23:42:06.523Z,10.41
2023-02-19T23:44:37.400Z,10.44
2023-02-19T23:47:08.211Z,10.87
2023-02-19T23:49:39.824Z,11.08
2023-02-19T23:52:10.519Z,11.03
2023-02-19T23:54:41.194Z,10.81
2023-02-19T23:57:11.434Z,11.02
2023-02-19T23:59:41.869Z,11.41
